Home > Products > Valid Products > TAF

000
FTUS43 KTOP 270500
TAFTOP
TAF
KTOP 270522Z 2706/2806 33009KT P6SM OVC020
     FM270700 36004KT P6SM SCT020 BKN080
     FM271800 14008KT P6SM SCT080=



000
FTUS43 KTOP 262300
TAFTOP
TAF
KTOP 262320Z 2700/2724 32016G25KT P6SM OVC025
     FM270300 32009KT P6SM OVC025
     FM270700 01003KT P6SM SCT025 OVC060
     FM271700 14008KT P6SM SCT060=



000
FTUS43 KTOP 261700
TAFTOP
TAF
KTOP 261725Z 2618/2718 32020G28KT P6SM BKN035
     FM261900 33020G28KT P6SM BKN030
     FM270300 34005KT P6SM SCT120=



000
FTUS43 KTOP 261500 AAB
TAFTOP
TAF AMD
KTOP 261514Z 2615/2712 31018G28KT P6SM BKN050
      TEMPO 2618/2622 P6SM BKN030
     FM270000 34005KT P6SM SKC=



000
FTUS43 KTOP 261300 AAA
TAFTOP
TAF AMD
KTOP 261313Z 2613/2712 26010KT P6SM SCT080
     FM261700 31018G28KT P6SM BKN040
      TEMPO 2618/2622 P6SM BKN030
     FM270000 34005KT P6SM SKC=



000
FTUS43 KTOP 261100
TAFTOP
TAF
KTOP 261121Z 2612/2712 26010KT P6SM SCT080
     FM261600 31018G28KT P6SM BKN040
     FM262000 32015G24KT P6SM SCT040
     FM270100 34005KT P6SM SKC=



000
FTUS43 KTOP 260500
TAFTOP
TAF
KTOP 260528Z 2606/2706 19008KT P6SM OVC080
     FM260800 25010KT P6SM -SHRA SCT025 OVC050
     FM261000 27010KT P6SM SCT030 BKN050
     FM261400 31018G28KT P6SM BKN028
     FM262000 32015G24KT P6SM SCT030
     FM270100 32006KT P6SM SKC=



000
FTUS43 KTOP 252300
TAFTOP
TAF
KTOP 252320Z 2600/2624 17008KT P6SM OVC080
     FM260800 25010KT P6SM -SHRA SCT025 OVC050
     FM261000 30010KT P6SM SCT030 BKN050
     FM261400 31013G26KT P6SM BKN030=



000
FTUS43 KTOP 251700
TAFTOP
TAF
KTOP 251732Z 2518/2618 21008KT P6SM FEW200
     FM260000 16008KT P6SM OVC080
     FM260600 25010KT P6SM VCSH SCT030 BKN050
     FM261300 31012KT P6SM SCT030 BKN050=



000
FTUS43 KTOP 251100
TAFTOP
TAF
KTOP 251121Z 2512/2612 29006KT P6SM SKC
     FM251600 21008KT P6SM FEW200
     FM260000 16008KT P6SM OVC060
     FM260600 25010KT P6SM BKN050=



000
FTUS43 KTOP 250500
TAFTOP
TAF
KTOP 250520Z 2506/2606 30006KT P6SM SKC
     FM251600 22007KT P6SM FEW200
     FM260000 17008KT P6SM OVC060=



000
FTUS43 KTOP 242300
TAFTOP
TAF
KTOP 242320Z 2500/2524 30008KT P6SM SKC
     FM251700 21008KT P6SM FEW250=



000
FTUS43 KTOP 241700
TAFTOP
TAF
KTOP 241733Z 2418/2518 30014G22KT P6SM SCT040
     FM250000 30008KT P6SM SKC=



000
FTUS43 KTOP 241100
TAFTOP
TAF
KTOP 241123Z 2412/2512 29010KT P6SM SKC
     FM241400 30014G22KT P6SM SCT040
     FM242300 30008KT P6SM SKC=



    US Dept of Commerce
    National Oceanic and Atmospheric Administration
    National Weather Service
    1325 East West Highway
    Silver Spring, MD 20910
    Page Author: NWS Internet Services Team
Disclaimer
Information Quality
Credits
Glossary
Privacy Policy
Freedom of Information Act (FOIA)
About Us
Career Opportunities